sensor_id;sensor_type;location;lat;lon;timestamp;P1;durP1;ratioP1;P2;durP2;ratioP2
68942;SDS011;60852;52.190;4.422;2023-01-23T00:00:33;19.29;;;18.65;;
68942;SDS011;60852;52.190;4.422;2023-01-23T00:03:02;18.60;;;18.30;;
68942;SDS011;60852;52.190;4.422;2023-01-23T00:05:28;18.07;;;17.81;;
68942;SDS011;60852;52.190;4.422;2023-01-23T00:07:54;18.14;;;17.94;;
68942;SDS011;60852;52.190;4.422;2023-01-23T00:10:19;18.63;;;18.20;;
68942;SDS011;60852;52.190;4.422;2023-01-23T00:12:45;18.45;;;18.13;;
68942;SDS011;60852;52.190;4.422;2023-01-23T00:15:13;19.18;;;18.73;;
68942;SDS011;60852;52.190;4.422;2023-01-23T00:17:39;18.76;;;18.34;;
68942;SDS011;60852;52.190;4.422;2023-01-23T00:20:08;18.45;;;18.18;;
68942;SDS011;60852;52.190;4.422;2023-01-23T00:22:35;19.44;;;18.98;;
68942;SDS011;60852;52.190;4.422;2023-01-23T00:25:01;18.41;;;18.27;;
68942;SDS011;60852;52.190;4.422;2023-01-23T00:27:27;19.44;;;19.02;;
68942;SDS011;60852;52.190;4.422;2023-01-23T00:29:52;19.28;;;18.86;;
68942;SDS011;60852;52.190;4.422;2023-01-23T00:32:18;19.30;;;18.97;;
68942;SDS011;60852;52.190;4.422;2023-01-23T00:34:45;19.38;;;18.98;;
68942;SDS011;60852;52.190;4.422;2023-01-23T00:37:11;19.25;;;18.77;;
68942;SDS011;60852;52.190;4.422;2023-01-23T00:39:38;19.28;;;18.99;;
68942;SDS011;60852;52.190;4.422;2023-01-23T00:42:04;18.83;;;18.34;;
68942;SDS011;60852;52.190;4.422;2023-01-23T00:44:30;18.87;;;18.47;;
68942;SDS011;60852;52.190;4.422;2023-01-23T00:46:57;18.74;;;18.62;;
68942;SDS011;60852;52.190;4.422;2023-01-23T00:49:23;19.30;;;19.05;;
68942;SDS011;60852;52.190;4.422;2023-01-23T00:51:49;19.32;;;18.99;;
68942;SDS011;60852;52.190;4.422;2023-01-23T00:54:15;19.79;;;19.08;;
68942;SDS011;60852;52.190;4.422;2023-01-23T00:56:41;19.97;;;19.38;;
68942;SDS011;60852;52.190;4.422;2023-01-23T00:59:07;19.94;;;19.43;;
68942;SDS011;60852;52.190;4.422;2023-01-23T01:01:33;19.58;;;19.31;;
68942;SDS011;60852;52.190;4.422;2023-01-23T01:03:58;18.92;;;18.67;;
68942;SDS011;60852;52.190;4.422;2023-01-23T01:06:24;19.16;;;19.01;;
68942;SDS011;60852;52.190;4.422;2023-01-23T01:08:51;19.00;;;18.65;;
68942;SDS011;60852;52.190;4.422;2023-01-23T01:11:16;19.20;;;18.73;;
68942;SDS011;60852;52.190;4.422;2023-01-23T01:13:43;18.60;;;18.31;;
68942;SDS011;60852;52.190;4.422;2023-01-23T01:16:09;20.03;;;19.51;;
68942;SDS011;60852;52.190;4.422;2023-01-23T01:18:35;20.29;;;19.74;;
68942;SDS011;60852;52.190;4.422;2023-01-23T01:21:04;20.56;;;19.99;;
68942;SDS011;60852;52.190;4.422;2023-01-23T01:23:30;20.31;;;19.79;;
68942;SDS011;60852;52.190;4.422;2023-01-23T01:25:59;19.86;;;19.54;;
68942;SDS011;60852;52.190;4.422;2023-01-23T01:28:26;19.07;;;18.81;;
68942;SDS011;60852;52.190;4.422;2023-01-23T01:30:54;20.09;;;19.67;;
68942;SDS011;60852;52.190;4.422;2023-01-23T01:33:21;19.39;;;19.01;;
68942;SDS011;60852;52.190;4.422;2023-01-23T01:35:48;19.52;;;19.22;;
68942;SDS011;60852;52.190;4.422;2023-01-23T01:38:14;20.77;;;20.13;;
68942;SDS011;60852;52.190;4.422;2023-01-23T01:40:40;20.43;;;19.95;;
68942;SDS011;60852;52.190;4.422;2023-01-23T01:43:07;20.42;;;19.88;;
68942;SDS011;60852;52.190;4.422;2023-01-23T01:48:38;20.03;;;19.75;;
68942;SDS011;60852;52.190;4.422;2023-01-23T01:51:10;19.79;;;19.47;;
68942;SDS011;60852;52.190;4.422;2023-01-23T01:53:52;20.73;;;20.22;;
68942;SDS011;60852;52.190;4.422;2023-01-23T01:56:23;19.73;;;19.46;;
68942;SDS011;60852;52.190;4.422;2023-01-23T01:58:52;20.84;;;20.33;;
68942;SDS011;60852;52.190;4.422;2023-01-23T02:01:19;20.21;;;19.65;;
68942;SDS011;60852;52.190;4.422;2023-01-23T02:03:44;21.12;;;20.57;;
68942;SDS011;60852;52.190;4.422;2023-01-23T02:06:11;20.96;;;20.49;;
68942;SDS011;60852;52.190;4.422;2023-01-23T02:08:40;20.82;;;20.61;;
68942;SDS011;60852;52.190;4.422;2023-01-23T02:11:19;21.27;;;20.74;;
68942;SDS011;60852;52.190;4.422;2023-01-23T02:13:44;20.82;;;20.39;;
68942;SDS011;60852;52.190;4.422;2023-01-23T02:18:46;20.39;;;20.15;;
68942;SDS011;60852;52.190;4.422;2023-01-23T02:21:14;21.34;;;20.76;;
68942;SDS011;60852;52.190;4.422;2023-01-23T02:23:47;20.72;;;20.37;;
68942;SDS011;60852;52.190;4.422;2023-01-23T02:26:28;21.38;;;20.93;;
68942;SDS011;60852;52.190;4.422;2023-01-23T02:29:00;20.80;;;20.37;;
68942;SDS011;60852;52.190;4.422;2023-01-23T02:31:27;21.04;;;20.64;;
68942;SDS011;60852;52.190;4.422;2023-01-23T02:33:54;20.40;;;19.83;;
68942;SDS011;60852;52.190;4.422;2023-01-23T02:36:23;20.14;;;19.95;;
68942;SDS011;60852;52.190;4.422;2023-01-23T02:39:14;20.76;;;20.46;;
68942;SDS011;60852;52.190;4.422;2023-01-23T02:41:42;20.76;;;20.41;;
68942;SDS011;60852;52.190;4.422;2023-01-23T02:46:52;22.18;;;21.78;;
68942;SDS011;60852;52.190;4.422;2023-01-23T02:49:22;21.78;;;21.07;;
68942;SDS011;60852;52.190;4.422;2023-01-23T02:51:49;20.96;;;20.44;;
68942;SDS011;60852;52.190;4.422;2023-01-23T02:54:16;21.15;;;20.67;;
68942;SDS011;60852;52.190;4.422;2023-01-23T02:56:42;21.85;;;21.11;;
68942;SDS011;60852;52.190;4.422;2023-01-23T02:59:08;21.53;;;21.07;;
68942;SDS011;60852;52.190;4.422;2023-01-23T03:02:00;21.33;;;20.98;;
68942;SDS011;60852;52.190;4.422;2023-01-23T03:04:26;21.78;;;21.18;;
68942;SDS011;60852;52.190;4.422;2023-01-23T03:06:51;20.78;;;20.34;;
68942;SDS011;60852;52.190;4.422;2023-01-23T03:09:17;22.29;;;21.65;;
68942;SDS011;60852;52.190;4.422;2023-01-23T03:11:44;21.37;;;20.70;;
68942;SDS011;60852;52.190;4.422;2023-01-23T03:14:12;21.81;;;21.11;;
68942;SDS011;60852;52.190;4.422;2023-01-23T03:16:39;22.35;;;21.70;;
68942;SDS011;60852;52.190;4.422;2023-01-23T03:19:07;22.24;;;21.60;;
68942;SDS011;60852;52.190;4.422;2023-01-23T03:21:34;21.94;;;21.32;;
68942;SDS011;60852;52.190;4.422;2023-01-23T03:24:02;21.98;;;21.34;;
68942;SDS011;60852;52.190;4.422;2023-01-23T03:26:29;22.47;;;21.78;;
68942;SDS011;60852;52.190;4.422;2023-01-23T03:28:55;22.36;;;21.67;;
68942;SDS011;60852;52.190;4.422;2023-01-23T03:31:39;22.32;;;21.68;;
68942;SDS011;60852;52.190;4.422;2023-01-23T03:34:05;23.00;;;22.43;;
68942;SDS011;60852;52.190;4.422;2023-01-23T03:36:30;22.51;;;22.06;;
68942;SDS011;60852;52.190;4.422;2023-01-23T03:38:56;22.56;;;21.82;;
68942;SDS011;60852;52.190;4.422;2023-01-23T03:41:40;22.05;;;21.74;;
68942;SDS011;60852;52.190;4.422;2023-01-23T03:44:06;22.88;;;22.26;;
68942;SDS011;60852;52.190;4.422;2023-01-23T03:46:33;22.24;;;21.80;;
68942;SDS011;60852;52.190;4.422;2023-01-23T03:48:59;22.63;;;22.12;;
68942;SDS011;60852;52.190;4.422;2023-01-23T03:51:24;22.99;;;22.49;;
68942;SDS011;60852;52.190;4.422;2023-01-23T03:53:50;22.44;;;22.06;;
68942;SDS011;60852;52.190;4.422;2023-01-23T03:56:15;23.23;;;22.74;;
68942;SDS011;60852;52.190;4.422;2023-01-23T03:58:41;22.85;;;22.46;;
68942;SDS011;60852;52.190;4.422;2023-01-23T04:01:07;23.08;;;22.52;;
68942;SDS011;60852;52.190;4.422;2023-01-23T04:03:33;23.74;;;22.94;;
68942;SDS011;60852;52.190;4.422;2023-01-23T04:05:59;23.65;;;23.11;;
68942;SDS011;60852;52.190;4.422;2023-01-23T04:08:25;23.03;;;22.61;;
68942;SDS011;60852;52.190;4.422;2023-01-23T04:10:50;22.73;;;22.37;;
68942;SDS011;60852;52.190;4.422;2023-01-23T04:13:15;22.81;;;22.29;;
68942;SDS011;60852;52.190;4.422;2023-01-23T04:15:41;23.40;;;22.82;;
68942;SDS011;60852;52.190;4.422;2023-01-23T04:18:07;23.49;;;23.06;;
68942;SDS011;60852;52.190;4.422;2023-01-23T04:20:32;23.29;;;22.69;;
68942;SDS011;60852;52.190;4.422;2023-01-23T04:22:58;23.77;;;23.22;;
68942;SDS011;60852;52.190;4.422;2023-01-23T04:25:23;23.61;;;23.21;;
68942;SDS011;60852;52.190;4.422;2023-01-23T04:27:49;23.67;;;23.09;;
68942;SDS011;60852;52.190;4.422;2023-01-23T04:30:14;23.76;;;23.22;;
68942;SDS011;60852;52.190;4.422;2023-01-23T04:32:40;22.26;;;21.88;;
68942;SDS011;60852;52.190;4.422;2023-01-23T04:35:05;23.74;;;22.96;;
68942;SDS011;60852;52.190;4.422;2023-01-23T04:37:31;23.26;;;22.74;;
68942;SDS011;60852;52.190;4.422;2023-01-23T04:39:56;23.18;;;22.70;;
68942;SDS011;60852;52.190;4.422;2023-01-23T04:42:22;23.84;;;23.41;;
68942;SDS011;60852;52.190;4.422;2023-01-23T04:44:47;23.76;;;23.16;;
68942;SDS011;60852;52.190;4.422;2023-01-23T04:47:12;23.51;;;22.95;;
68942;SDS011;60852;52.190;4.422;2023-01-23T04:49:38;23.36;;;22.73;;
68942;SDS011;60852;52.190;4.422;2023-01-23T04:52:03;23.57;;;23.08;;
68942;SDS011;60852;52.190;4.422;2023-01-23T04:54:29;23.35;;;22.97;;
68942;SDS011;60852;52.190;4.422;2023-01-23T04:56:54;23.42;;;22.96;;
68942;SDS011;60852;52.190;4.422;2023-01-23T04:59:20;24.31;;;23.66;;
68942;SDS011;60852;52.190;4.422;2023-01-23T05:01:47;24.48;;;23.77;;
68942;SDS011;60852;52.190;4.422;2023-01-23T05:04:12;24.35;;;23.71;;
68942;SDS011;60852;52.190;4.422;2023-01-23T05:06:38;24.09;;;23.50;;
68942;SDS011;60852;52.190;4.422;2023-01-23T05:09:03;24.18;;;23.58;;
68942;SDS011;60852;52.190;4.422;2023-01-23T05:11:29;23.63;;;23.18;;
68942;SDS011;60852;52.190;4.422;2023-01-23T05:13:55;23.50;;;23.05;;
68942;SDS011;60852;52.190;4.422;2023-01-23T05:16:21;23.38;;;22.86;;
68942;SDS011;60852;52.190;4.422;2023-01-23T05:18:46;24.00;;;23.61;;
68942;SDS011;60852;52.190;4.422;2023-01-23T05:21:14;23.32;;;22.99;;
68942;SDS011;60852;52.190;4.422;2023-01-23T05:23:39;25.19;;;24.26;;
68942;SDS011;60852;52.190;4.422;2023-01-23T05:26:05;25.30;;;24.46;;
68942;SDS011;60852;52.190;4.422;2023-01-23T05:28:30;25.55;;;24.75;;
68942;SDS011;60852;52.190;4.422;2023-01-23T05:30:55;25.01;;;24.50;;
68942;SDS011;60852;52.190;4.422;2023-01-23T05:33:21;25.61;;;24.83;;
68942;SDS011;60852;52.190;4.422;2023-01-23T05:35:46;24.98;;;24.25;;
68942;SDS011;60852;52.190;4.422;2023-01-23T05:38:12;26.10;;;25.23;;
68942;SDS011;60852;52.190;4.422;2023-01-23T05:40:38;26.00;;;25.32;;
68942;SDS011;60852;52.190;4.422;2023-01-23T05:43:04;27.46;;;26.69;;
68942;SDS011;60852;52.190;4.422;2023-01-23T05:45:30;25.78;;;25.09;;
68942;SDS011;60852;52.190;4.422;2023-01-23T05:47:56;26.43;;;25.75;;
68942;SDS011;60852;52.190;4.422;2023-01-23T05:50:21;27.56;;;26.68;;
68942;SDS011;60852;52.190;4.422;2023-01-23T05:52:48;27.04;;;26.26;;
68942;SDS011;60852;52.190;4.422;2023-01-23T05:55:14;27.38;;;26.39;;
68942;SDS011;60852;52.190;4.422;2023-01-23T05:57:40;27.12;;;26.28;;
68942;SDS011;60852;52.190;4.422;2023-01-23T06:00:07;27.72;;;27.02;;
68942;SDS011;60852;52.190;4.422;2023-01-23T06:02:36;27.89;;;27.11;;
68942;SDS011;60852;52.190;4.422;2023-01-23T06:05:02;28.33;;;27.38;;
68942;SDS011;60852;52.190;4.422;2023-01-23T06:07:27;27.58;;;26.79;;
68942;SDS011;60852;52.190;4.422;2023-01-23T06:09:53;28.95;;;28.00;;
68942;SDS011;60852;52.190;4.422;2023-01-23T06:12:18;29.47;;;28.47;;
68942;SDS011;60852;52.190;4.422;2023-01-23T06:14:45;28.08;;;27.28;;
68942;SDS011;60852;52.190;4.422;2023-01-23T06:17:11;28.90;;;27.96;;
68942;SDS011;60852;52.190;4.422;2023-01-23T06:19:37;29.24;;;28.27;;
68942;SDS011;60852;52.190;4.422;2023-01-23T06:22:03;29.67;;;28.75;;
68942;SDS011;60852;52.190;4.422;2023-01-23T06:24:28;29.52;;;28.60;;
68942;SDS011;60852;52.190;4.422;2023-01-23T06:26:54;29.22;;;28.02;;
68942;SDS011;60852;52.190;4.422;2023-01-23T06:29:19;28.79;;;27.77;;
68942;SDS011;60852;52.190;4.422;2023-01-23T06:31:45;27.37;;;27.00;;
68942;SDS011;60852;52.190;4.422;2023-01-23T06:34:12;28.16;;;27.32;;
68942;SDS011;60852;52.190;4.422;2023-01-23T06:36:38;28.54;;;27.89;;
68942;SDS011;60852;52.190;4.422;2023-01-23T06:39:04;28.41;;;27.60;;
68942;SDS011;60852;52.190;4.422;2023-01-23T06:41:30;29.31;;;28.34;;
68942;SDS011;60852;52.190;4.422;2023-01-23T06:43:55;29.19;;;28.23;;
68942;SDS011;60852;52.190;4.422;2023-01-23T06:46:21;29.41;;;28.35;;
68942;SDS011;60852;52.190;4.422;2023-01-23T06:48:47;29.37;;;28.31;;
68942;SDS011;60852;52.190;4.422;2023-01-23T06:51:13;29.20;;;28.48;;
68942;SDS011;60852;52.190;4.422;2023-01-23T06:53:38;29.16;;;28.06;;
68942;SDS011;60852;52.190;4.422;2023-01-23T06:56:05;29.36;;;28.26;;
68942;SDS011;60852;52.190;4.422;2023-01-23T06:58:32;28.17;;;27.35;;
68942;SDS011;60852;52.190;4.422;2023-01-23T07:00:59;29.54;;;28.36;;
68942;SDS011;60852;52.190;4.422;2023-01-23T07:03:33;29.85;;;28.65;;
68942;SDS011;60852;52.190;4.422;2023-01-23T07:06:00;28.51;;;27.61;;
68942;SDS011;60852;52.190;4.422;2023-01-23T07:08:27;29.30;;;28.17;;
68942;SDS011;60852;52.190;4.422;2023-01-23T07:10:53;28.53;;;27.61;;
68942;SDS011;60852;52.190;4.422;2023-01-23T07:13:18;28.72;;;27.71;;
68942;SDS011;60852;52.190;4.422;2023-01-23T07:15:45;29.07;;;28.04;;
68942;SDS011;60852;52.190;4.422;2023-01-23T07:18:11;29.23;;;28.37;;
68942;SDS011;60852;52.190;4.422;2023-01-23T07:20:37;29.95;;;29.11;;
68942;SDS011;60852;52.190;4.422;2023-01-23T07:23:02;28.35;;;27.38;;
68942;SDS011;60852;52.190;4.422;2023-01-23T07:25:28;28.33;;;27.40;;
68942;SDS011;60852;52.190;4.422;2023-01-23T07:27:54;28.06;;;27.14;;
68942;SDS011;60852;52.190;4.422;2023-01-23T07:30:20;28.48;;;27.52;;
68942;SDS011;60852;52.190;4.422;2023-01-23T07:32:45;28.51;;;27.70;;
68942;SDS011;60852;52.190;4.422;2023-01-23T07:35:11;29.21;;;28.14;;
68942;SDS011;60852;52.190;4.422;2023-01-23T07:37:36;29.05;;;28.05;;
68942;SDS011;60852;52.190;4.422;2023-01-23T07:40:02;30.18;;;29.19;;
68942;SDS011;60852;52.190;4.422;2023-01-23T07:42:27;30.21;;;28.88;;
68942;SDS011;60852;52.190;4.422;2023-01-23T07:44:53;29.66;;;28.77;;
68942;SDS011;60852;52.190;4.422;2023-01-23T07:47:18;28.12;;;27.48;;
68942;SDS011;60852;52.190;4.422;2023-01-23T07:49:44;28.61;;;27.53;;
68942;SDS011;60852;52.190;4.422;2023-01-23T07:52:09;29.43;;;28.45;;
68942;SDS011;60852;52.190;4.422;2023-01-23T07:54:35;28.91;;;27.99;;
68942;SDS011;60852;52.190;4.422;2023-01-23T07:57:00;29.27;;;28.24;;
68942;SDS011;60852;52.190;4.422;2023-01-23T07:59:26;29.18;;;28.20;;
68942;SDS011;60852;52.190;4.422;2023-01-23T08:01:51;30.15;;;29.09;;
68942;SDS011;60852;52.190;4.422;2023-01-23T08:04:17;29.64;;;28.62;;
68942;SDS011;60852;52.190;4.422;2023-01-23T08:06:44;30.29;;;29.00;;
68942;SDS011;60852;52.190;4.422;2023-01-23T08:09:10;30.51;;;29.02;;
68942;SDS011;60852;52.190;4.422;2023-01-23T08:11:37;28.14;;;27.37;;
68942;SDS011;60852;52.190;4.422;2023-01-23T08:14:03;28.68;;;27.85;;
68942;SDS011;60852;52.190;4.422;2023-01-23T08:16:28;28.92;;;27.94;;
68942;SDS011;60852;52.190;4.422;2023-01-23T08:18:54;28.92;;;28.08;;
68942;SDS011;60852;52.190;4.422;2023-01-23T08:21:19;29.26;;;28.44;;
68942;SDS011;60852;52.190;4.422;2023-01-23T08:23:45;29.02;;;28.03;;
68942;SDS011;60852;52.190;4.422;2023-01-23T08:26:11;28.88;;;27.90;;
68942;SDS011;60852;52.190;4.422;2023-01-23T08:28:40;28.83;;;27.75;;
68942;SDS011;60852;52.190;4.422;2023-01-23T08:31:07;29.15;;;28.19;;
68942;SDS011;60852;52.190;4.422;2023-01-23T08:33:34;29.30;;;28.40;;
68942;SDS011;60852;52.190;4.422;2023-01-23T08:36:01;29.23;;;28.22;;
68942;SDS011;60852;52.190;4.422;2023-01-23T08:38:28;29.71;;;28.64;;
68942;SDS011;60852;52.190;4.422;2023-01-23T08:40:56;29.45;;;28.07;;
68942;SDS011;60852;52.190;4.422;2023-01-23T08:43:24;30.27;;;29.01;;
68942;SDS011;60852;52.190;4.422;2023-01-23T08:45:53;29.73;;;28.81;;
68942;SDS011;60852;52.190;4.422;2023-01-23T08:48:21;30.47;;;29.38;;
68942;SDS011;60852;52.190;4.422;2023-01-23T08:50:48;29.49;;;28.37;;
68942;SDS011;60852;52.190;4.422;2023-01-23T08:53:15;29.65;;;28.72;;
68942;SDS011;60852;52.190;4.422;2023-01-23T08:55:41;29.90;;;28.91;;
68942;SDS011;60852;52.190;4.422;2023-01-23T08:58:07;30.01;;;28.82;;
68942;SDS011;60852;52.190;4.422;2023-01-23T09:00:37;29.86;;;28.63;;
68942;SDS011;60852;52.190;4.422;2023-01-23T09:03:03;30.26;;;29.18;;
68942;SDS011;60852;52.190;4.422;2023-01-23T09:05:29;30.95;;;29.62;;
68942;SDS011;60852;52.190;4.422;2023-01-23T09:07:55;30.60;;;29.34;;
68942;SDS011;60852;52.190;4.422;2023-01-23T09:10:22;30.11;;;28.93;;
68942;SDS011;60852;52.190;4.422;2023-01-23T09:12:52;31.13;;;30.03;;
68942;SDS011;60852;52.190;4.422;2023-01-23T09:15:19;31.41;;;30.23;;
68942;SDS011;60852;52.190;4.422;2023-01-23T09:17:45;30.89;;;29.46;;
68942;SDS011;60852;52.190;4.422;2023-01-23T09:20:10;30.41;;;29.36;;
68942;SDS011;60852;52.190;4.422;2023-01-23T09:22:36;30.72;;;29.34;;
68942;SDS011;60852;52.190;4.422;2023-01-23T09:25:02;30.12;;;29.19;;
68942;SDS011;60852;52.190;4.422;2023-01-23T09:27:27;30.57;;;29.50;;
68942;SDS011;60852;52.190;4.422;2023-01-23T09:29:53;30.87;;;29.51;;
68942;SDS011;60852;52.190;4.422;2023-01-23T09:32:18;30.24;;;29.08;;
68942;SDS011;60852;52.190;4.422;2023-01-23T09:34:44;29.94;;;28.91;;
68942;SDS011;60852;52.190;4.422;2023-01-23T09:37:13;29.71;;;28.70;;
68942;SDS011;60852;52.190;4.422;2023-01-23T09:39:41;29.65;;;28.78;;
68942;SDS011;60852;52.190;4.422;2023-01-23T09:42:08;30.23;;;29.05;;
68942;SDS011;60852;52.190;4.422;2023-01-23T09:45:00;30.72;;;29.21;;
68942;SDS011;60852;52.190;4.422;2023-01-23T09:47:37;29.85;;;28.90;;
68942;SDS011;60852;52.190;4.422;2023-01-23T09:50:39;29.59;;;28.61;;
68942;SDS011;60852;52.190;4.422;2023-01-23T09:53:11;30.32;;;29.15;;
68942;SDS011;60852;52.190;4.422;2023-01-23T09:55:41;30.59;;;29.39;;
68942;SDS011;60852;52.190;4.422;2023-01-23T09:58:46;30.72;;;29.75;;
68942;SDS011;60852;52.190;4.422;2023-01-23T10:01:11;31.20;;;29.74;;
68942;SDS011;60852;52.190;4.422;2023-01-23T10:03:37;30.66;;;29.35;;
68942;SDS011;60852;52.190;4.422;2023-01-23T10:11:23;30.84;;;29.79;;
68942;SDS011;60852;52.190;4.422;2023-01-23T10:24:57;32.23;;;30.99;;
68942;SDS011;60852;52.190;4.422;2023-01-23T10:27:34;30.99;;;29.61;;
68942;SDS011;60852;52.190;4.422;2023-01-23T10:32:47;30.92;;;29.46;;
68942;SDS011;60852;52.190;4.422;2023-01-23T10:35:19;29.44;;;28.63;;
68942;SDS011;60852;52.190;4.422;2023-01-23T10:38:25;29.70;;;28.74;;
68942;SDS011;60852;52.190;4.422;2023-01-23T10:41:11;30.59;;;29.20;;
68942;SDS011;60852;52.190;4.422;2023-01-23T10:43:40;29.75;;;28.73;;
68942;SDS011;60852;52.190;4.422;2023-01-23T10:48:48;28.59;;;27.65;;
68942;SDS011;60852;52.190;4.422;2023-01-23T10:51:32;29.81;;;28.56;;
68942;SDS011;60852;52.190;4.422;2023-01-23T10:56:30;30.54;;;29.25;;
68942;SDS011;60852;52.190;4.422;2023-01-23T10:58:57;29.92;;;28.80;;
68942;SDS011;60852;52.190;4.422;2023-01-23T11:01:26;29.79;;;28.72;;
68942;SDS011;60852;52.190;4.422;2023-01-23T11:03:55;30.13;;;28.90;;
68942;SDS011;60852;52.190;4.422;2023-01-23T11:06:22;29.97;;;28.52;;
68942;SDS011;60852;52.190;4.422;2023-01-23T11:08:59;28.41;;;27.56;;
68942;SDS011;60852;52.190;4.422;2023-01-23T11:11:26;29.43;;;28.16;;
68942;SDS011;60852;52.190;4.422;2023-01-23T11:14:04;28.59;;;27.55;;
68942;SDS011;60852;52.190;4.422;2023-01-23T11:16:33;27.00;;;25.89;;
68942;SDS011;60852;52.190;4.422;2023-01-23T11:21:36;26.43;;;25.24;;
68942;SDS011;60852;52.190;4.422;2023-01-23T11:24:21;26.92;;;25.96;;
68942;SDS011;60852;52.190;4.422;2023-01-23T11:27:14;25.71;;;24.65;;
68942;SDS011;60852;52.190;4.422;2023-01-23T11:32:36;24.62;;;23.46;;
68942;SDS011;60852;52.190;4.422;2023-01-23T11:35:12;26.76;;;25.56;;
68942;SDS011;60852;52.190;4.422;2023-01-23T11:37:41;27.42;;;26.02;;
68942;SDS011;60852;52.190;4.422;2023-01-23T11:40:11;26.66;;;25.68;;
68942;SDS011;60852;52.190;4.422;2023-01-23T11:42:42;26.50;;;25.50;;
68942;SDS011;60852;52.190;4.422;2023-01-23T11:45:19;25.74;;;24.44;;
68942;SDS011;60852;52.190;4.422;2023-01-23T11:50:43;24.50;;;23.36;;
68942;SDS011;60852;52.190;4.422;2023-01-23T12:01:35;16.89;;;16.18;;
68942;SDS011;60852;52.190;4.422;2023-01-23T12:07:19;16.86;;;16.02;;
68942;SDS011;60852;52.190;4.422;2023-01-23T12:09:51;16.54;;;16.05;;
68942;SDS011;60852;52.190;4.422;2023-01-23T12:20:44;19.47;;;18.72;;
68942;SDS011;60852;52.190;4.422;2023-01-23T12:26:11;18.00;;;17.07;;
68942;SDS011;60852;52.190;4.422;2023-01-23T12:34:59;16.99;;;16.43;;
68942;SDS011;60852;52.190;4.422;2023-01-23T12:45:49;14.00;;;13.47;;
68942;SDS011;60852;52.190;4.422;2023-01-23T12:51:22;18.20;;;17.52;;
68942;SDS011;60852;52.190;4.422;2023-01-23T12:53:57;14.69;;;14.14;;
68942;SDS011;60852;52.190;4.422;2023-01-23T12:56:27;14.02;;;13.33;;
68942;SDS011;60852;52.190;4.422;2023-01-23T12:59:04;12.92;;;12.74;;
68942;SDS011;60852;52.190;4.422;2023-01-23T13:07:39;14.31;;;13.80;;
68942;SDS011;60852;52.190;4.422;2023-01-23T13:13:20;13.31;;;12.90;;
68942;SDS011;60852;52.190;4.422;2023-01-23T13:16:02;12.72;;;12.46;;
68942;SDS011;60852;52.190;4.422;2023-01-23T13:18:39;11.92;;;11.61;;
68942;SDS011;60852;52.190;4.422;2023-01-23T13:21:34;11.94;;;11.71;;
68942;SDS011;60852;52.190;4.422;2023-01-23T13:27:33;10.71;;;10.43;;
68942;SDS011;60852;52.190;4.422;2023-01-23T13:30:00;9.91;;;9.76;;
68942;SDS011;60852;52.190;4.422;2023-01-23T13:32:27;11.32;;;10.84;;
68942;SDS011;60852;52.190;4.422;2023-01-23T13:34:53;13.78;;;13.58;;
68942;SDS011;60852;52.190;4.422;2023-01-23T13:38:12;12.86;;;12.83;;
68942;SDS011;60852;52.190;4.422;2023-01-23T13:40:11;15.61;;;15.41;;
68942;SDS011;60852;52.190;4.422;2023-01-23T13:42:38;13.05;;;12.91;;
68942;SDS011;60852;52.190;4.422;2023-01-23T13:51:16;14.96;;;14.36;;
68942;SDS011;60852;52.190;4.422;2023-01-23T13:53:44;13.57;;;13.16;;
68942;SDS011;60852;52.190;4.422;2023-01-23T13:56:31;11.79;;;11.49;;
68942;SDS011;60852;52.190;4.422;2023-01-23T13:59:03;11.92;;;11.63;;
68942;SDS011;60852;52.190;4.422;2023-01-23T14:01:38;12.58;;;12.45;;
68942;SDS011;60852;52.190;4.422;2023-01-23T14:04:29;11.33;;;11.30;;
68942;SDS011;60852;52.190;4.422;2023-01-23T14:12:45;11.51;;;11.20;;
68942;SDS011;60852;52.190;4.422;2023-01-23T14:15:19;11.49;;;11.17;;
68942;SDS011;60852;52.190;4.422;2023-01-23T14:18:13;12.65;;;12.25;;
68942;SDS011;60852;52.190;4.422;2023-01-23T14:20:48;12.30;;;11.92;;
68942;SDS011;60852;52.190;4.422;2023-01-23T14:25:49;12.33;;;11.80;;
68942;SDS011;60852;52.190;4.422;2023-01-23T14:28:16;13.81;;;13.22;;
68942;SDS011;60852;52.190;4.422;2023-01-23T14:31:01;13.09;;;12.68;;
68942;SDS011;60852;52.190;4.422;2023-01-23T14:33:39;11.72;;;11.45;;
68942;SDS011;60852;52.190;4.422;2023-01-23T14:36:11;14.18;;;13.72;;
68942;SDS011;60852;52.190;4.422;2023-01-23T14:38:40;13.75;;;13.26;;
68942;SDS011;60852;52.190;4.422;2023-01-23T14:41:12;12.58;;;12.10;;
68942;SDS011;60852;52.190;4.422;2023-01-23T14:43:39;12.45;;;12.15;;
68942;SDS011;60852;52.190;4.422;2023-01-23T14:48:52;11.05;;;10.73;;
68942;SDS011;60852;52.190;4.422;2023-01-23T14:51:21;11.66;;;11.16;;
68942;SDS011;60852;52.190;4.422;2023-01-23T14:53:53;12.75;;;12.44;;
68942;SDS011;60852;52.190;4.422;2023-01-23T14:56:31;22.31;;;20.83;;
68942;SDS011;60852;52.190;4.422;2023-01-23T14:59:04;27.43;;;25.73;;
68942;SDS011;60852;52.190;4.422;2023-01-23T15:01:51;25.12;;;22.67;;
68942;SDS011;60852;52.190;4.422;2023-01-23T15:04:22;26.20;;;25.59;;
68942;SDS011;60852;52.190;4.422;2023-01-23T15:06:53;21.35;;;20.12;;
68942;SDS011;60852;52.190;4.422;2023-01-23T15:12:05;9.48;;;9.10;;
68942;SDS011;60852;52.190;4.422;2023-01-23T15:14:36;10.56;;;10.20;;
68942;SDS011;60852;52.190;4.422;2023-01-23T15:17:05;10.97;;;10.69;;
68942;SDS011;60852;52.190;4.422;2023-01-23T15:19:38;11.33;;;10.92;;
68942;SDS011;60852;52.190;4.422;2023-01-23T15:22:06;10.08;;;9.84;;
68942;SDS011;60852;52.190;4.422;2023-01-23T15:24:42;10.14;;;9.85;;
68942;SDS011;60852;52.190;4.422;2023-01-23T15:32:54;10.16;;;9.71;;
68942;SDS011;60852;52.190;4.422;2023-01-23T15:35:20;10.01;;;9.64;;
68942;SDS011;60852;52.190;4.422;2023-01-23T15:37:46;13.61;;;13.22;;
68942;SDS011;60852;52.190;4.422;2023-01-23T15:40:14;16.35;;;15.78;;
68942;SDS011;60852;52.190;4.422;2023-01-23T15:42:42;25.05;;;23.72;;
68942;SDS011;60852;52.190;4.422;2023-01-23T15:45:13;10.13;;;9.80;;
68942;SDS011;60852;52.190;4.422;2023-01-23T15:47:39;10.40;;;10.32;;
68942;SDS011;60852;52.190;4.422;2023-01-23T15:50:04;9.95;;;9.66;;
68942;SDS011;60852;52.190;4.422;2023-01-23T15:52:41;10.58;;;10.29;;
68942;SDS011;60852;52.190;4.422;2023-01-23T15:55:11;11.51;;;11.14;;
68942;SDS011;60852;52.190;4.422;2023-01-23T15:57:37;13.97;;;13.75;;
68942;SDS011;60852;52.190;4.422;2023-01-23T16:00:16;15.02;;;15.00;;
68942;SDS011;60852;52.190;4.422;2023-01-23T16:02:44;10.97;;;10.82;;
68942;SDS011;60852;52.190;4.422;2023-01-23T16:05:10;10.95;;;10.87;;
68942;SDS011;60852;52.190;4.422;2023-01-23T16:07:37;11.49;;;11.29;;
68942;SDS011;60852;52.190;4.422;2023-01-23T16:12:48;14.99;;;14.72;;
68942;SDS011;60852;52.190;4.422;2023-01-23T16:15:16;14.77;;;14.27;;
68942;SDS011;60852;52.190;4.422;2023-01-23T16:17:42;14.54;;;14.17;;
68942;SDS011;60852;52.190;4.422;2023-01-23T16:20:15;12.96;;;12.62;;
68942;SDS011;60852;52.190;4.422;2023-01-23T16:22:52;19.16;;;18.46;;
68942;SDS011;60852;52.190;4.422;2023-01-23T16:25:27;14.69;;;14.22;;
68942;SDS011;60852;52.190;4.422;2023-01-23T16:27:55;12.75;;;12.50;;
68942;SDS011;60852;52.190;4.422;2023-01-23T16:30:22;14.42;;;13.94;;
68942;SDS011;60852;52.190;4.422;2023-01-23T16:32:49;14.05;;;13.58;;